< < Back
Terminal Aerodrome Forecast


Current Version              Previous Versions:   1  2  3  4  5  6  7  8  9  

Terminal Aerodrome Forecast

963
FTUS42 KCHS 271100
TAFCHS
TAF
KCHS 271121Z 2712/2812 36007KT P6SM SKC
     FM272300 VRB02KT P6SM SKC=



Latest METAR

777
SAUS80 KWBC 271200 CCA
MTRCHS
METAR KCHS 271156Z 34005KT 10SM FEW250 21/18 A3002 RMK AO2 SLP166
T02110178 10222 20183 51011


USA.gov is the U.S. government's official web portal to all federal, state and local government web resources and services.